createdAt,value
2019-04-28T00:00:38.615Z,1.20
2019-04-28T00:01:38.624Z,1.20
2019-04-28T00:02:38.711Z,1.20
2019-04-28T00:03:38.621Z,1.70
2019-04-28T00:04:38.631Z,1.20
2019-04-28T00:05:38.622Z,1.50
2019-04-28T00:06:38.655Z,1.20
2019-04-28T00:07:38.666Z,1.20
2019-04-28T00:08:38.645Z,1.20
2019-04-28T00:09:38.643Z,1.40
2019-04-28T00:10:38.636Z,1.10
2019-04-28T00:11:38.635Z,1.40
2019-04-28T00:12:38.695Z,1.30
2019-04-28T00:13:38.703Z,1.40
2019-04-28T00:14:38.618Z,1.70
2019-04-28T00:15:38.678Z,0.90
2019-04-28T00:16:38.640Z,1.90
2019-04-28T00:17:38.656Z,1.10
2019-04-28T00:18:38.717Z,1.40
2019-04-28T00:19:38.641Z,1.30
2019-04-28T00:20:38.684Z,1.00
2019-04-28T00:21:38.633Z,1.30
2019-04-28T00:22:38.653Z,1.30
2019-04-28T00:23:38.688Z,1.80
2019-04-28T00:24:38.663Z,1.00
2019-04-28T00:25:38.648Z,1.30
2019-04-28T00:26:38.671Z,1.60
2019-04-28T00:27:38.692Z,0.80
2019-04-28T00:28:38.650Z,1.20
2019-04-28T00:29:41.177Z,1.20
2019-04-28T00:30:38.649Z,1.50
2019-04-28T00:31:38.633Z,2.10
2019-04-28T00:32:38.692Z,1.90
2019-04-28T00:33:38.665Z,1.10
2019-04-28T00:34:38.654Z,2.10
2019-04-28T00:35:38.667Z,0.90
2019-04-28T00:36:38.683Z,1.30
2019-04-28T00:37:38.691Z,1.10
2019-04-28T00:38:38.718Z,1.90
2019-04-28T00:39:38.672Z,1.20
2019-04-28T00:40:38.663Z,1.40
2019-04-28T00:41:38.668Z,1.10
2019-04-28T00:42:38.677Z,1.00
2019-04-28T00:43:38.693Z,1.00
2019-04-28T00:44:38.696Z,1.50
2019-04-28T00:45:38.702Z,1.30
2019-04-28T00:46:38.690Z,0.60
2019-04-28T00:47:38.709Z,1.00
2019-04-28T00:48:38.687Z,0.90
2019-04-28T00:49:38.739Z,0.50
2019-04-28T00:50:38.696Z,0.80
2019-04-28T00:51:38.685Z,1.30
2019-04-28T00:52:38.700Z,1.60
2019-04-28T00:53:38.694Z,0.80
2019-04-28T00:54:38.728Z,0.90
2019-04-28T00:55:38.694Z,1.30
2019-04-28T00:56:38.711Z,1.10
2019-04-28T00:57:38.691Z,1.00
2019-04-28T00:58:38.706Z,0.90
2019-04-28T00:59:52.119Z,0.90
2019-04-28T01:00:38.701Z,1.00
2019-04-28T01:01:38.685Z,1.10
2019-04-28T01:02:38.737Z,1.30
2019-04-28T01:03:38.692Z,1.10
2019-04-28T01:04:38.728Z,1.20
2019-04-28T01:05:38.728Z,0.80
2019-04-28T01:06:38.693Z,1.00
2019-04-28T01:07:38.693Z,1.60
2019-04-28T01:08:38.715Z,1.40
2019-04-28T01:09:39.030Z,1.00
2019-04-28T01:10:38.716Z,1.10
2019-04-28T01:11:38.743Z,1.10
2019-04-28T01:12:38.734Z,0.90
2019-04-28T01:13:38.688Z,1.20
2019-04-28T01:14:38.700Z,1.00
2019-04-28T01:15:39.638Z,1.10
2019-04-28T01:16:40.078Z,0.90
2019-04-28T01:17:39.761Z,1.10
2019-04-28T01:18:40.462Z,0.80
2019-04-28T01:19:39.847Z,0.90
2019-04-28T01:20:39.690Z,0.80
2019-04-28T01:21:41.431Z,1.00
2019-04-28T01:22:40.181Z,0.90
2019-04-28T01:23:40.253Z,0.90
2019-04-28T01:24:39.790Z,1.60
2019-04-28T01:25:40.087Z,0.80
2019-04-28T01:26:39.158Z,1.00
2019-04-28T01:27:40.284Z,0.80
2019-04-28T01:28:39.807Z,1.20
2019-04-28T01:29:40.255Z,0.90
2019-04-28T01:30:40.103Z,0.90
2019-04-28T01:31:39.638Z,1.10
2019-04-28T01:32:39.985Z,0.70
2019-04-28T01:33:40.516Z,1.30
2019-04-28T01:34:39.957Z,1.10
2019-04-28T01:35:39.671Z,1.20
2019-04-28T01:36:39.996Z,1.40
2019-04-28T01:37:40.569Z,0.80
2019-04-28T01:38:40.195Z,1.20
2019-04-28T01:39:41.019Z,1.20
2019-04-28T01:40:38.798Z,0.80
2019-04-28T01:41:39.761Z,1.00
2019-04-28T01:42:38.774Z,1.00
2019-04-28T01:43:38.826Z,0.80
2019-04-28T01:44:39.553Z,1.30
2019-04-28T01:45:39.774Z,1.00
2019-04-28T01:46:39.903Z,0.90
2019-04-28T01:47:40.427Z,1.20
2019-04-28T01:48:39.791Z,1.20
2019-04-28T01:49:40.427Z,1.00
2019-04-28T01:50:39.990Z,1.20
2019-04-28T01:51:38.834Z,1.50
2019-04-28T01:52:39.907Z,0.80
2019-04-28T01:53:39.588Z,1.20
2019-04-28T01:54:40.252Z,1.00
2019-04-28T01:55:39.338Z,1.10
2019-04-28T01:56:40.374Z,1.20
2019-04-28T01:57:40.015Z,1.40
2019-04-28T01:58:40.377Z,0.70
2019-04-28T01:59:40.276Z,0.90
2019-04-28T02:00:40.544Z,0.80
2019-04-28T02:01:39.972Z,1.20
2019-04-28T02:02:40.654Z,1.40
2019-04-28T02:03:40.379Z,0.70
2019-04-28T02:04:40.235Z,1.00
2019-04-28T02:05:40.379Z,0.90
2019-04-28T02:06:39.883Z,0.90
2019-04-28T02:07:40.656Z,0.70
2019-04-28T02:08:39.863Z,0.90
2019-04-28T02:09:39.578Z,0.90
2019-04-28T02:10:40.187Z,0.80
2019-04-28T02:11:39.173Z,0.80
2019-04-28T02:12:40.296Z,0.80
2019-04-28T02:13:39.772Z,1.10
2019-04-28T02:14:40.367Z,0.80
2019-04-28T02:15:40.056Z,1.50
2019-04-28T02:16:40.474Z,1.10
2019-04-28T02:17:40.166Z,1.30
2019-04-28T02:18:39.886Z,0.90
2019-04-28T02:19:40.992Z,0.50
2019-04-28T02:20:39.765Z,0.70
2019-04-28T02:21:39.566Z,0.50
2019-04-28T02:22:40.102Z,0.90
2019-04-28T02:23:39.669Z,1.00
2019-04-28T02:24:40.507Z,1.20
2019-04-28T02:25:39.897Z,0.90
2019-04-28T02:26:40.292Z,1.10
2019-04-28T02:27:40.037Z,1.00
2019-04-28T02:28:40.646Z,0.70
2019-04-28T02:29:41.484Z,0.80
2019-04-28T02:30:45.306Z,0.60
2019-04-28T02:31:41.499Z,1.00
2019-04-28T02:32:40.706Z,1.30
2019-04-28T02:33:40.815Z,1.40
2019-04-28T02:34:41.106Z,0.50
2019-04-28T02:35:41.497Z,0.80
2019-04-28T02:36:40.780Z,0.90
2019-04-28T02:37:40.534Z,0.70
2019-04-28T02:38:41.377Z,1.00
2019-04-28T02:39:40.928Z,0.60
2019-04-28T02:40:40.630Z,0.70
2019-04-28T02:41:41.140Z,1.10
2019-04-28T02:42:40.932Z,1.00
2019-04-28T02:43:40.953Z,1.10
2019-04-28T02:44:40.399Z,0.90
2019-04-28T02:45:41.243Z,0.80
2019-04-28T02:46:40.775Z,1.10
2019-04-28T02:47:41.658Z,0.70
2019-04-28T02:48:40.447Z,0.50
2019-04-28T02:49:40.606Z,0.70
2019-04-28T02:51:40.742Z,1.00
2019-04-28T02:52:41.209Z,1.00
2019-04-28T02:53:40.905Z,1.20
2019-04-28T02:54:40.423Z,1.20
2019-04-28T02:55:41.120Z,1.20
2019-04-28T02:56:40.894Z,1.00
2019-04-28T02:57:40.634Z,0.90
2019-04-28T02:58:41.543Z,0.80
2019-04-28T02:59:41.025Z,1.00
2019-04-28T03:00:41.138Z,0.80
2019-04-28T03:01:40.884Z,1.30
2019-04-28T03:02:41.392Z,0.90
2019-04-28T03:03:40.870Z,0.90
2019-04-28T03:04:40.816Z,0.90
2019-04-28T03:05:41.263Z,0.70
2019-04-28T03:06:40.736Z,1.30
2019-04-28T03:07:40.965Z,0.90
2019-04-28T03:08:40.438Z,0.90
2019-04-28T03:09:40.377Z,0.70
2019-04-28T03:10:41.032Z,0.90
2019-04-28T03:11:42.770Z,0.80
2019-04-28T03:12:41.460Z,0.80
2019-04-28T03:13:41.204Z,0.90
2019-04-28T03:14:43.535Z,1.80
2019-04-28T03:15:41.292Z,0.80
2019-04-28T03:16:40.975Z,0.70
2019-04-28T03:17:40.634Z,0.80
2019-04-28T03:18:41.211Z,0.70
2019-04-28T03:19:41.630Z,1.10
2019-04-28T03:20:41.516Z,1.10
2019-04-28T03:21:41.533Z,0.70
2019-04-28T03:22:40.834Z,0.90
2019-04-28T03:23:40.555Z,1.60
2019-04-28T03:24:41.330Z,0.60
2019-04-28T03:26:41.271Z,1.30
2019-04-28T03:27:40.525Z,0.80
2019-04-28T03:28:41.438Z,1.00
2019-04-28T03:29:40.398Z,0.90
2019-04-28T03:30:43.531Z,1.10
2019-04-28T03:32:07.394Z,1.20
2019-04-28T03:32:47.198Z,0.80
2019-04-28T03:33:47.347Z,0.70
2019-04-28T03:34:43.600Z,1.20
2019-04-28T03:35:43.532Z,0.90
2019-04-28T03:36:40.833Z,0.60
2019-04-28T03:37:41.194Z,0.70
2019-04-28T03:38:40.630Z,0.50
2019-04-28T03:39:40.529Z,1.10
2019-04-28T03:40:41.372Z,0.70
2019-04-28T03:41:40.503Z,0.80
2019-04-28T03:42:41.032Z,0.90
2019-04-28T03:43:40.628Z,0.90
2019-04-28T03:44:41.530Z,0.70
2019-04-28T03:45:40.941Z,1.10
2019-04-28T03:46:41.336Z,1.30
2019-04-28T03:47:40.749Z,1.00
2019-04-28T03:48:40.967Z,0.80
2019-04-28T03:49:42.710Z,0.80
2019-04-28T03:50:41.322Z,1.20
2019-04-28T03:51:40.749Z,0.90
2019-04-28T03:52:41.265Z,1.00
2019-04-28T03:53:40.970Z,1.00
2019-04-28T03:54:41.006Z,1.10
2019-04-28T03:55:41.690Z,1.10
2019-04-28T03:56:41.301Z,0.60
2019-04-28T03:57:41.164Z,1.10
2019-04-28T03:58:40.662Z,0.70
2019-04-28T03:59:43.130Z,1.00
2019-04-28T04:00:40.833Z,0.80
2019-04-28T04:01:52.994Z,0.80
2019-04-28T04:02:41.114Z,0.90
2019-04-28T04:03:41.499Z,1.00
2019-04-28T04:04:41.461Z,0.80
2019-04-28T04:05:40.584Z,0.80
2019-04-28T04:06:40.861Z,1.10
2019-04-28T04:07:42.889Z,0.70
2019-04-28T04:08:40.793Z,0.90
2019-04-28T04:09:41.345Z,0.90
2019-04-28T04:10:40.314Z,0.60
2019-04-28T04:11:41.029Z,0.90
2019-04-28T04:12:41.166Z,0.70
2019-04-28T04:13:41.205Z,0.90
2019-04-28T04:14:41.201Z,1.10
2019-04-28T04:15:41.279Z,1.10
2019-04-28T04:16:40.616Z,1.20
2019-04-28T04:17:41.315Z,0.60
2019-04-28T04:18:40.741Z,0.80
2019-04-28T04:19:40.787Z,0.90
2019-04-28T04:20:41.007Z,0.90
2019-04-28T04:21:40.783Z,0.70
2019-04-28T04:22:41.171Z,0.90
2019-04-28T04:23:41.164Z,0.80
2019-04-28T04:24:40.360Z,1.00
2019-04-28T04:25:41.674Z,0.90
2019-04-28T04:26:40.950Z,0.60
2019-04-28T04:27:40.655Z,1.10
2019-04-28T04:28:41.617Z,0.90
2019-04-28T04:29:43.238Z,0.80
2019-04-28T04:30:40.980Z,0.80
2019-04-28T04:31:41.230Z,0.70
2019-04-28T04:32:41.062Z,0.90
2019-04-28T04:33:41.075Z,1.10
2019-04-28T04:34:40.778Z,0.90
2019-04-28T04:35:41.134Z,0.80
2019-04-28T04:36:41.704Z,1.20
2019-04-28T04:37:40.625Z,1.00
2019-04-28T04:38:43.364Z,1.10
2019-04-28T04:39:40.662Z,0.50
2019-04-28T04:40:41.256Z,0.70
2019-04-28T04:41:40.904Z,0.90
2019-04-28T04:42:40.269Z,0.80
2019-04-28T04:43:41.580Z,0.50
2019-04-28T04:44:41.410Z,1.20
2019-04-28T04:45:40.476Z,0.70
2019-04-28T04:46:41.494Z,0.70
2019-04-28T04:47:40.687Z,1.10
2019-04-28T04:48:40.795Z,0.80
2019-04-28T04:49:40.440Z,1.00
2019-04-28T04:50:41.050Z,0.60
2019-04-28T04:51:43.401Z,0.80
2019-04-28T04:52:40.313Z,0.70
2019-04-28T04:53:40.747Z,0.70
2019-04-28T04:54:40.133Z,0.80
2019-04-28T04:55:40.847Z,1.20
2019-04-28T04:56:40.133Z,0.70
2019-04-28T04:57:40.829Z,0.80
2019-04-28T04:58:40.632Z,0.70
2019-04-28T04:59:40.152Z,0.80
2019-04-28T05:00:40.490Z,0.60
2019-04-28T05:01:40.824Z,0.90
2019-04-28T05:02:41.018Z,0.50
2019-04-28T05:03:39.737Z,0.60
2019-04-28T05:04:39.567Z,0.50
2019-04-28T05:05:40.337Z,0.80
2019-04-28T05:06:39.956Z,0.60
2019-04-28T05:07:39.672Z,0.90
2019-04-28T05:08:39.976Z,0.80
2019-04-28T05:09:39.499Z,0.70
2019-04-28T05:10:40.365Z,1.00
2019-04-28T05:11:40.020Z,0.70
2019-04-28T05:12:40.389Z,1.10
2019-04-28T05:13:39.909Z,0.30
2019-04-28T05:14:39.533Z,0.80
2019-04-28T05:15:40.092Z,0.90
2019-04-28T05:16:39.876Z,0.40
2019-04-28T05:17:40.201Z,0.50
2019-04-28T05:18:39.381Z,0.80
2019-04-28T05:19:40.146Z,0.60
2019-04-28T05:20:40.363Z,0.80
2019-04-28T05:21:40.175Z,1.00
2019-04-28T05:22:40.005Z,1.30
2019-04-28T05:23:39.983Z,0.80
2019-04-28T05:24:40.300Z,0.80
2019-04-28T05:25:39.557Z,0.50
2019-04-28T05:26:42.584Z,1.30
2019-04-28T05:27:39.963Z,0.50
2019-04-28T05:28:43.309Z,1.60
2019-04-28T05:29:39.770Z,1.00
2019-04-28T05:30:42.726Z,0.60
2019-04-28T05:31:40.104Z,1.10
2019-04-28T05:32:44.691Z,0.80
2019-04-28T05:33:39.601Z,0.80
2019-04-28T05:34:39.817Z,0.60
2019-04-28T05:35:39.699Z,0.90
2019-04-28T05:36:43.909Z,1.50
2019-04-28T05:37:40.475Z,0.60
2019-04-28T05:38:40.179Z,0.90
2019-04-28T05:39:40.434Z,1.40
2019-04-28T05:40:39.848Z,0.80
2019-04-28T05:41:39.977Z,0.70
2019-04-28T05:42:39.480Z,0.60
2019-04-28T05:43:40.399Z,0.70
2019-04-28T05:44:40.824Z,1.20
2019-04-28T05:45:39.745Z,0.90
2019-04-28T05:46:40.230Z,1.00
2019-04-28T05:47:40.756Z,1.50
2019-04-28T05:48:40.755Z,1.30
2019-04-28T05:49:39.708Z,0.50
2019-04-28T05:50:40.077Z,0.50
2019-04-28T05:51:40.263Z,1.50
2019-04-28T05:52:40.346Z,0.50
2019-04-28T05:53:40.277Z,1.10
2019-04-28T05:54:40.318Z,0.90
2019-04-28T05:55:39.431Z,0.60
2019-04-28T05:56:39.787Z,0.60
2019-04-28T05:57:39.769Z,1.00
2019-04-28T05:58:40.182Z,0.70
2019-04-28T05:59:40.358Z,0.70
2019-04-28T06:00:39.728Z,1.10
2019-04-28T06:01:40.623Z,0.50
2019-04-28T06:02:39.685Z,0.80
2019-04-28T06:03:40.525Z,0.60
2019-04-28T06:04:40.501Z,0.70
2019-04-28T06:05:39.451Z,0.50
2019-04-28T06:06:40.521Z,0.80
2019-04-28T06:07:40.536Z,0.80
2019-04-28T06:08:40.725Z,0.80
2019-04-28T06:09:39.879Z,0.50
2019-04-28T06:10:39.906Z,1.00
2019-04-28T06:11:39.777Z,0.70
2019-04-28T06:12:40.577Z,0.60
2019-04-28T06:13:40.135Z,1.10
2019-04-28T06:14:40.249Z,0.60
2019-04-28T06:15:39.681Z,0.70
2019-04-28T06:16:40.737Z,0.70
2019-04-28T06:17:39.688Z,0.60
2019-04-28T06:18:39.505Z,0.60
2019-04-28T06:19:40.285Z,0.70
2019-04-28T06:20:40.691Z,0.80
2019-04-28T06:21:39.138Z,0.70
2019-04-28T06:22:39.147Z,0.90
2019-04-28T06:23:39.149Z,0.60
2019-04-28T06:24:39.146Z,0.50
2019-04-28T06:25:39.148Z,0.60
2019-04-28T06:26:39.115Z,1.20
2019-04-28T06:27:39.115Z,0.60
2019-04-28T06:28:39.195Z,0.60
2019-04-28T06:29:39.135Z,1.10
2019-04-28T06:30:39.145Z,0.80
2019-04-28T06:31:39.141Z,0.50
2019-04-28T06:32:39.200Z,0.80
2019-04-28T06:33:39.166Z,0.80
2019-04-28T06:34:39.134Z,1.00
2019-04-28T06:35:39.146Z,1.10
2019-04-28T06:36:39.141Z,0.70
2019-04-28T06:37:39.146Z,0.40
2019-04-28T06:38:39.169Z,0.70
2019-04-28T06:39:39.181Z,0.80
2019-04-28T06:40:39.163Z,0.80
2019-04-28T06:41:39.162Z,0.80
2019-04-28T06:42:39.167Z,0.80
2019-04-28T06:43:39.189Z,1.00
2019-04-28T06:44:39.196Z,0.50
2019-04-28T06:45:39.182Z,0.60
2019-04-28T06:46:39.162Z,0.40
2019-04-28T06:47:39.163Z,0.40
2019-04-28T06:48:39.209Z,0.70
2019-04-28T06:49:39.184Z,0.90
2019-04-28T06:50:39.173Z,0.60
2019-04-28T06:51:39.181Z,0.70
2019-04-28T06:52:39.187Z,1.00
2019-04-28T06:53:39.195Z,0.70
2019-04-28T06:54:39.212Z,0.70
2019-04-28T06:55:39.179Z,1.00
2019-04-28T06:56:39.197Z,0.60
2019-04-28T06:57:39.176Z,0.70
2019-04-28T06:58:39.163Z,0.90
2019-04-28T06:59:39.180Z,0.80
2019-04-28T07:00:39.196Z,0.50
2019-04-28T07:01:39.162Z,0.70
2019-04-28T07:02:39.222Z,0.90
2019-04-28T07:03:39.217Z,0.60
2019-04-28T07:04:39.221Z,0.50
2019-04-28T07:05:39.202Z,0.80
2019-04-28T07:06:39.187Z,0.70
2019-04-28T07:07:39.163Z,0.90
2019-04-28T07:08:39.189Z,0.90
2019-04-28T07:09:39.216Z,0.60
2019-04-28T07:10:39.230Z,0.90
2019-04-28T07:11:39.206Z,0.90
2019-04-28T07:12:39.204Z,0.60
2019-04-28T07:13:39.180Z,1.20
2019-04-28T07:14:39.198Z,0.80
2019-04-28T07:15:39.194Z,0.40
2019-04-28T07:16:39.237Z,0.80
2019-04-28T07:17:39.210Z,0.80
2019-04-28T07:18:39.189Z,0.60
2019-04-28T07:19:39.234Z,0.40
2019-04-28T07:20:39.277Z,0.90
2019-04-28T07:21:39.229Z,0.60
2019-04-28T07:22:39.204Z,0.50
2019-04-28T07:23:39.219Z,0.90
2019-04-28T07:24:39.222Z,0.40
2019-04-28T07:25:39.206Z,0.50
2019-04-28T07:26:39.219Z,1.10
2019-04-28T07:27:39.244Z,0.80
2019-04-28T07:28:39.196Z,0.90
2019-04-28T07:29:39.231Z,0.50
2019-04-28T07:30:39.212Z,0.70
2019-04-28T07:31:39.202Z,0.30
2019-04-28T07:32:39.238Z,0.90
2019-04-28T07:33:39.209Z,0.70
2019-04-28T07:34:39.251Z,0.80
2019-04-28T07:35:39.196Z,0.60
2019-04-28T07:36:39.245Z,1.30
2019-04-28T07:37:39.212Z,0.70
2019-04-28T07:38:39.237Z,0.70
2019-04-28T07:39:39.269Z,0.60
2019-04-28T07:40:39.221Z,0.60
2019-04-28T07:41:45.105Z,0.70
2019-04-28T07:42:39.246Z,1.60
2019-04-28T07:43:39.217Z,1.00
2019-04-28T07:44:39.229Z,0.40
2019-04-28T07:45:39.222Z,0.60
2019-04-28T07:46:39.240Z,0.60
2019-04-28T07:47:39.231Z,0.80
2019-04-28T07:48:39.225Z,0.80
2019-04-28T07:49:39.296Z,0.40
2019-04-28T07:50:39.240Z,0.40
2019-04-28T07:51:39.232Z,0.90
2019-04-28T07:52:39.258Z,0.70
2019-04-28T07:53:39.266Z,0.60
2019-04-28T07:54:40.175Z,1.00
2019-04-28T07:55:39.231Z,0.40
2019-04-28T07:56:39.307Z,0.80
2019-04-28T07:57:39.432Z,0.40
2019-04-28T07:58:39.239Z,0.70
2019-04-28T07:59:39.277Z,0.60
2019-04-28T08:00:39.237Z,0.70
2019-04-28T08:01:39.251Z,0.70
2019-04-28T08:02:39.267Z,0.60
2019-04-28T08:03:49.210Z,0.80
2019-04-28T08:04:39.268Z,1.00
2019-04-28T08:05:39.244Z,0.90
2019-04-28T08:06:39.252Z,1.40
2019-04-28T08:07:39.244Z,0.60
2019-04-28T08:08:39.258Z,0.80
2019-04-28T08:09:39.301Z,0.50
2019-04-28T08:10:39.235Z,1.70
2019-04-28T08:11:39.252Z,1.30
2019-04-28T08:12:39.244Z,0.70
2019-04-28T08:13:39.262Z,1.10
2019-04-28T08:14:39.288Z,1.90
2019-04-28T08:15:39.259Z,0.80
2019-04-28T08:16:39.274Z,1.50
2019-04-28T08:17:39.272Z,0.70
2019-04-28T08:18:39.252Z,1.40
2019-04-28T08:19:39.280Z,0.90
2019-04-28T08:20:39.279Z,1.00
2019-04-28T08:21:39.275Z,0.70
2019-04-28T08:22:39.301Z,2.40
2019-04-28T08:23:47.067Z,0.90
2019-04-28T08:24:39.292Z,0.90
2019-04-28T08:25:39.261Z,1.20
2019-04-28T08:26:39.290Z,1.30
2019-04-28T08:27:39.263Z,0.40
2019-04-28T08:28:39.267Z,0.40
2019-04-28T08:29:39.303Z,0.60
2019-04-28T08:30:39.305Z,0.50
2019-04-28T08:31:39.268Z,0.40
2019-04-28T08:32:39.292Z,1.90
2019-04-28T08:33:39.315Z,0.90
2019-04-28T08:34:39.273Z,0.70
2019-04-28T08:35:39.346Z,0.80
2019-04-28T08:36:39.273Z,0.70
2019-04-28T08:37:39.283Z,2.00
2019-04-28T08:38:39.313Z,0.50
2019-04-28T08:39:39.291Z,0.60
2019-04-28T08:40:39.307Z,1.40
2019-04-28T08:41:39.295Z,0.80
2019-04-28T08:42:39.317Z,0.60
2019-04-28T08:43:39.284Z,0.80
2019-04-28T08:44:39.299Z,0.80
2019-04-28T08:45:39.345Z,0.90
2019-04-28T08:46:39.356Z,0.80
2019-04-28T08:47:39.263Z,0.40
2019-04-28T08:48:39.282Z,0.50
2019-04-28T08:49:39.283Z,0.40
2019-04-28T08:50:39.292Z,0.60
2019-04-28T08:51:39.305Z,0.30
2019-04-28T08:52:39.309Z,0.60
2019-04-28T08:53:39.309Z,0.90
2019-04-28T08:54:39.359Z,1.00
2019-04-28T08:55:39.299Z,0.40
2019-04-28T08:56:39.357Z,0.50
2019-04-28T08:57:39.305Z,0.30
2019-04-28T08:58:39.338Z,1.40
2019-04-28T08:59:39.323Z,0.80
2019-04-28T09:00:39.311Z,0.90
2019-04-28T09:01:39.343Z,0.40
2019-04-28T09:02:39.326Z,1.20
2019-04-28T09:03:39.344Z,0.40
2019-04-28T09:04:39.340Z,0.40
2019-04-28T09:05:39.334Z,0.40
2019-04-28T09:06:39.373Z,0.60
2019-04-28T09:07:39.312Z,0.40
2019-04-28T09:08:39.318Z,0.50
2019-04-28T09:09:39.353Z,1.30
2019-04-28T09:10:39.300Z,0.50
2019-04-28T09:11:39.328Z,0.40
2019-04-28T09:12:39.312Z,1.00
2019-04-28T09:13:39.333Z,0.30
2019-04-28T09:14:39.320Z,0.90
2019-04-28T09:15:39.308Z,0.40
2019-04-28T09:16:39.324Z,0.60
2019-04-28T09:17:39.342Z,0.50
2019-04-28T09:18:39.333Z,0.80
2019-04-28T09:19:42.250Z,0.90
2019-04-28T09:20:39.332Z,0.50
2019-04-28T09:21:39.371Z,0.30
2019-04-28T09:22:39.333Z,0.80
2019-04-28T09:23:39.353Z,0.40
2019-04-28T09:24:39.314Z,0.50
2019-04-28T09:25:39.315Z,1.20
2019-04-28T09:26:39.375Z,0.40
2019-04-28T09:27:39.327Z,0.30
2019-04-28T09:28:39.324Z,0.40
2019-04-28T09:29:39.337Z,0.20
2019-04-28T09:30:39.364Z,0.70
2019-04-28T09:31:39.340Z,0.40
2019-04-28T09:32:39.385Z,0.30
2019-04-28T09:33:39.346Z,0.50
2019-04-28T09:34:39.334Z,0.40
2019-04-28T09:35:39.382Z,0.70
2019-04-28T09:36:39.324Z,0.40
2019-04-28T09:37:39.372Z,0.70
2019-04-28T09:38:39.332Z,0.50
2019-04-28T09:39:39.349Z,0.50
2019-04-28T09:40:39.319Z,0.30
2019-04-28T09:41:39.383Z,0.30
2019-04-28T09:42:39.363Z,0.20
2019-04-28T09:43:39.341Z,0.80
2019-04-28T09:44:39.328Z,0.40
2019-04-28T09:45:39.373Z,0.70
2019-04-28T09:46:39.394Z,0.60
2019-04-28T09:47:39.390Z,0.60
2019-04-28T09:48:39.406Z,0.90
2019-04-28T09:49:39.373Z,1.60
2019-04-28T09:50:39.429Z,0.50
2019-04-28T09:51:39.349Z,0.80
2019-04-28T09:52:39.368Z,1.00
2019-04-28T09:53:39.418Z,0.30
2019-04-28T09:54:39.342Z,0.80
2019-04-28T09:55:39.358Z,0.90
2019-04-28T09:56:39.353Z,0.50
2019-04-28T09:57:39.380Z,0.70
2019-04-28T09:58:39.387Z,1.00
2019-04-28T09:59:39.391Z,0.30
2019-04-28T10:00:39.401Z,0.80
2019-04-28T10:23:27.599Z,5.30
2019-04-28T10:24:27.581Z,4.40
2019-04-28T10:25:27.575Z,4.80
2019-04-28T10:26:27.503Z,3.30
2019-04-28T10:27:27.577Z,5.00
2019-04-28T10:28:27.569Z,5.10
2019-04-28T10:29:27.588Z,2.60
2019-04-28T10:30:27.595Z,1.40
2019-04-28T10:31:27.556Z,0.70
2019-04-28T10:32:27.571Z,3.60
2019-04-28T10:33:27.547Z,1.20
2019-04-28T10:34:27.607Z,5.60
2019-04-28T10:35:27.606Z,7.90
2019-04-28T10:36:28.565Z,7.30
2019-04-28T10:37:33.773Z,6.20
2019-04-28T10:38:30.240Z,8.60
2019-04-28T10:39:30.279Z,5.30
2019-04-28T10:42:15.712Z,4.50
2019-04-28T10:42:26.478Z,5.80
2019-04-28T10:43:25.429Z,5.40
2019-04-28T10:47:03.811Z,5.00
2019-04-28T10:47:06.508Z,5.10
2019-04-28T10:48:05.953Z,5.90
2019-04-28T10:49:06.013Z,4.00
2019-04-28T10:50:05.995Z,6.40
2019-04-28T10:51:06.087Z,5.10
2019-04-28T10:52:06.019Z,2.60
2019-04-28T10:53:06.012Z,5.30
2019-04-28T10:54:06.017Z,7.00
2019-04-28T10:55:05.975Z,4.30
2019-04-28T10:56:06.000Z,5.70
2019-04-28T10:57:05.989Z,4.50
2019-04-28T10:58:05.997Z,7.00
2019-04-28T10:59:06.022Z,4.00
2019-04-28T11:00:05.990Z,4.10
2019-04-28T11:01:06.019Z,6.90
2019-04-28T11:02:06.062Z,7.60
2019-04-28T11:03:06.044Z,4.30
2019-04-28T11:04:05.994Z,6.20
2019-04-28T11:05:08.755Z,4.80
2019-04-28T11:06:05.968Z,7.90
2019-04-28T11:07:06.022Z,6.40
2019-04-28T11:08:06.032Z,4.90
2019-04-28T11:09:05.981Z,7.40
2019-04-28T11:10:05.992Z,6.30
2019-04-28T11:11:06.049Z,5.10
2019-04-28T11:12:06.053Z,4.60
2019-04-28T11:13:06.070Z,3.50
2019-04-28T11:14:06.066Z,5.50
2019-04-28T11:15:06.048Z,3.60
2019-04-28T11:16:06.016Z,3.80
2019-04-28T11:17:06.056Z,5.10
2019-04-28T11:18:06.038Z,5.40
2019-04-28T11:19:06.046Z,4.50
2019-04-28T11:20:06.068Z,5.10
2019-04-28T11:21:06.037Z,4.30
2019-04-28T11:22:06.011Z,3.30
2019-04-28T11:23:06.024Z,3.80
2019-04-28T11:24:06.028Z,2.90
2019-04-28T11:25:06.070Z,2.20
2019-04-28T11:26:06.034Z,3.60
2019-04-28T11:27:06.036Z,3.40
2019-04-28T11:28:06.035Z,3.90
2019-04-28T11:29:06.034Z,5.40
2019-04-28T11:30:06.061Z,3.40
2019-04-28T11:31:06.052Z,3.80
2019-04-28T11:32:06.045Z,4.00
2019-04-28T11:33:06.063Z,3.80
2019-04-28T11:34:06.035Z,5.40
2019-04-28T11:35:06.101Z,4.60
2019-04-28T11:36:06.092Z,3.40
2019-04-28T11:37:06.022Z,3.10
2019-04-28T11:38:06.030Z,4.70
2019-04-28T11:39:06.019Z,3.30
2019-04-28T11:40:06.077Z,2.90
2019-04-28T11:41:06.072Z,2.60
2019-04-28T11:42:06.063Z,3.30
2019-04-28T11:43:06.026Z,2.80
2019-04-28T11:44:06.064Z,3.30
2019-04-28T11:45:06.124Z,4.60
2019-04-28T11:46:06.054Z,4.60
2019-04-28T11:47:06.039Z,1.30
2019-04-28T11:48:06.059Z,4.10
2019-04-28T11:49:06.072Z,3.40
2019-04-28T11:50:06.153Z,2.00
2019-04-28T11:51:06.064Z,2.70
2019-04-28T11:52:06.037Z,1.80
2019-04-28T11:53:06.057Z,2.90
2019-04-28T11:54:06.093Z,3.50
2019-04-28T11:55:06.108Z,2.70
2019-04-28T11:56:06.079Z,2.50
2019-04-28T11:57:06.072Z,4.60
2019-04-28T11:58:06.094Z,4.50
2019-04-28T11:59:06.090Z,2.50
2019-04-28T12:00:06.089Z,2.10
2019-04-28T12:01:06.104Z,2.80
2019-04-28T12:02:06.074Z,2.00
2019-04-28T12:03:06.043Z,3.80
2019-04-28T12:04:06.051Z,1.90
2019-04-28T12:05:06.068Z,3.40
2019-04-28T12:06:06.042Z,2.70
2019-04-28T12:07:06.084Z,2.40
2019-04-28T12:08:06.074Z,2.10
2019-04-28T12:09:06.058Z,3.20
2019-04-28T12:10:06.627Z,3.70
2019-04-28T12:11:06.113Z,2.00
2019-04-28T12:12:08.574Z,1.20
2019-04-28T12:13:06.128Z,2.20
2019-04-28T12:14:06.088Z,2.10
2019-04-28T12:15:06.061Z,1.10
2019-04-28T12:16:06.138Z,2.30
2019-04-28T12:17:06.133Z,1.50
2019-04-28T12:18:06.071Z,1.80
2019-04-28T12:19:06.086Z,1.70
2019-04-28T12:20:06.047Z,1.60
2019-04-28T12:21:06.151Z,3.30
2019-04-28T12:22:06.092Z,3.90
2019-04-28T12:23:06.129Z,1.20
2019-04-28T12:24:06.135Z,2.10
2019-04-28T12:25:06.081Z,2.40
2019-04-28T12:26:06.173Z,2.50
2019-04-28T12:27:06.106Z,3.00
2019-04-28T12:28:06.050Z,1.60
2019-04-28T12:29:06.095Z,1.70
2019-04-28T12:30:06.061Z,2.00
2019-04-28T12:31:06.121Z,2.70
2019-04-28T12:32:06.115Z,2.20
2019-04-28T12:33:06.105Z,1.90
2019-04-28T12:34:06.094Z,1.60
2019-04-28T12:35:06.131Z,2.30
2019-04-28T12:36:06.122Z,3.00
2019-04-28T12:37:06.171Z,1.70
2019-04-28T12:38:06.196Z,1.90
2019-04-28T12:39:06.174Z,1.90
2019-04-28T12:40:06.163Z,1.80
2019-04-28T12:41:06.206Z,1.30
2019-04-28T12:42:06.200Z,2.70
2019-04-28T12:43:06.183Z,2.20
2019-04-28T12:44:06.168Z,1.10
2019-04-28T12:45:06.168Z,2.00
2019-04-28T12:46:06.206Z,2.70
2019-04-28T12:47:06.158Z,2.90
2019-04-28T12:48:06.191Z,1.50
2019-04-28T12:49:06.153Z,1.10
2019-04-28T12:50:06.203Z,2.20
2019-04-28T12:51:06.178Z,2.50
2019-04-28T12:52:06.188Z,1.70
2019-04-28T12:53:06.185Z,1.70
2019-04-28T12:54:06.230Z,1.70
2019-04-28T12:55:06.194Z,2.70
2019-04-28T12:56:06.226Z,1.10
2019-04-28T12:57:06.183Z,2.90
2019-04-28T12:58:06.229Z,1.60
2019-04-28T12:59:06.156Z,1.40
2019-04-28T13:00:06.188Z,1.50
2019-04-28T13:01:06.177Z,0.90
2019-04-28T13:02:06.206Z,2.10
2019-04-28T13:03:06.292Z,2.70
2019-04-28T13:04:06.169Z,2.00
2019-04-28T13:05:06.213Z,1.50
2019-04-28T13:06:06.227Z,2.40
2019-04-28T13:07:06.149Z,1.30
2019-04-28T13:08:06.231Z,1.30
2019-04-28T13:09:06.222Z,1.80
2019-04-28T13:10:06.235Z,1.50
2019-04-28T13:11:06.235Z,1.60
2019-04-28T13:12:06.250Z,2.00
2019-04-28T13:13:06.241Z,1.40
2019-04-28T13:14:06.276Z,1.80
2019-04-28T13:15:06.190Z,1.00
2019-04-28T13:16:06.183Z,1.40
2019-04-28T13:17:06.219Z,1.30
2019-04-28T13:18:06.244Z,1.50
2019-04-28T13:19:06.267Z,1.50
2019-04-28T13:20:06.174Z,1.10
2019-04-28T13:21:06.236Z,1.20
2019-04-28T13:22:06.274Z,1.40
2019-04-28T13:23:06.215Z,1.60
2019-04-28T13:24:06.201Z,1.70
2019-04-28T13:25:06.227Z,1.20
2019-04-28T13:26:06.234Z,1.20
2019-04-28T13:27:06.263Z,1.70
2019-04-28T13:28:11.125Z,1.60
2019-04-28T13:29:06.273Z,1.70
2019-04-28T13:33:17.754Z,0.70
2019-04-28T13:34:06.275Z,1.00
2019-04-28T13:35:06.246Z,1.80
2019-04-28T13:37:06.277Z,1.30
2019-04-28T13:38:06.232Z,0.80
2019-04-28T13:39:06.255Z,1.10
2019-04-28T13:40:08.745Z,1.60
2019-04-28T13:42:06.239Z,1.30
2019-04-28T13:44:06.246Z,1.00
2019-04-28T13:45:06.255Z,1.10
2019-04-28T13:48:06.309Z,2.80
2019-04-28T13:49:06.228Z,1.00
2019-04-28T13:50:06.231Z,1.10
2019-04-28T13:51:06.227Z,0.70
2019-04-28T13:53:06.265Z,1.70
2019-04-28T13:54:06.251Z,2.40